Latest Weather Observations for Mount Ginini

IDN60901

Issued at 8:01 am EST Saturday 4 July 2015 (issued every 10 minutes, with the page automatically refreshed every 10 minutes)

About weather observations | Map of Canberra area stations | Latest observations for Canberra area | Other Formats
Station Details ID: 070349 Name: MOUNT GININI AWS Lat: -35.53 Lon: 148.77 Height: 1760.0 m
Data from the previous 72 hours. | See also: Recent months at Mount Ginini
Date/Time
EST
Tmp

°C
App
Tmp
°C
Dew
Point
°C
Rel
Hum
%
Delta-T

°C
Wind Press
QNH
hPa
Press
MSL
hPa
Rain
since
9 am
mm
Dir
 
Spd
km/h
Gust
km/h
Spd
kts
Gust
kts
04/08:00am 1.5 -7.1 -20.8 17 5.5 SSW 26 37 14 20 - - 0.0
04/07:34am 1.3 -7.7 -22.4 15 5.6 SSW 28 46 15 25 - - 0.0
04/07:30am 1.2 -8.2 -22.5 15 5.6 SSW 30 46 16 25 - - 0.0
04/07:00am 0.6 -7.9 -18.6 22 4.9 SSW 26 41 14 22 - - 0.0
04/06:30am 0.0 -8.1 -18.6 23 4.7 SW 24 33 13 18 - - 0.0
04/06:00am 0.2 -7.9 -19.0 22 4.8 SW 24 33 13 18 - - 0.0
04/05:30am 1.1 -7.4 -20.5 18 5.3 SW 26 46 14 25 - - 0.0
04/05:00am -0.1 -7.5 -20.3 20 4.8 SW 20 43 11 23 - - 0.0
04/04:30am -1.5 -8.9 -19.9 23 4.3 SW 20 35 11 19 - - 0.0
04/04:00am -1.8 -9.2 -21.2 21 4.3 WSW 20 33 11 18 - - 0.0
04/03:30am -0.3 -7.8 -25.3 13 5.3 WSW 20 32 11 17 - - 0.0
04/03:00am -0.9 -8.2 -25.0 14 5.0 WSW 19 30 10 16 - - 0.0
04/02:30am -1.0 -8.6 -25.9 13 5.1 SW 20 32 11 17 - - 0.0
04/02:00am -0.6 -8.1 -25.6 13 5.2 SW 20 32 11 17 - - 0.0
04/01:30am -1.1 -8.5 -21.7 19 4.6 WSW 20 32 11 17 - - 0.0
04/01:00am -0.4 -7.9 -23.1 16 5.0 WSW 20 32 11 17 - - 0.0
04/12:30am -0.7 -7.6 -23.3 16 4.9 WSW 17 26 9 14 - - 0.0
04/12:00am 0.0 -7.3 -25.1 13 5.3 WSW 19 30 10 16 - - 0.0
 
Date/Time
EST
Tmp

°C
App
Tmp
°C
Dew
Point
°C
Rel
Hum
%
Delta-T

°C
Wind Press
QNH
hPa
Press
MSL
hPa
Rain
since
9 am
mm
Dir
 
Spd
km/h
Gust
km/h
Spd
kts
Gust
kts
03/11:30pm 0.4 -6.2 -24.8 13 5.5 WSW 15 26 8 14 - - 0.0
03/11:00pm 0.6 -6.4 -24.6 13 5.5 WSW 17 24 9 13 - - 0.0
03/10:30pm 0.2 -6.8 -25.8 12 5.5 WSW 17 26 9 14 - - 0.0
03/10:00pm -0.8 -7.7 -24.1 15 5.0 WSW 17 24 9 13 - - 0.0
03/09:30pm -0.9 -8.2 -23.5 16 4.9 WSW 19 26 10 14 - - 0.0
03/09:00pm -0.7 -7.6 -23.3 16 4.9 WSW 17 26 9 14 - - 0.0
03/08:30pm -1.0 -8.4 -21.1 20 4.6 WSW 20 28 11 15 - - 0.0
03/08:00pm -3.2 -10.0 -12.6 48 2.5 WSW 19 24 10 13 - - 0.0
03/07:30pm -3.3 -10.4 -13.8 44 2.7 WSW 20 24 11 13 - - 0.0
03/07:00pm -3.8 -10.5 -8.3 71 1.3 WSW 20 28 11 15 - - 0.0
03/06:30pm -4.0 -10.6 -6.6 82 0.7 WSW 20 28 11 15 - - 0.0
03/06:00pm -3.9 -10.9 -7.3 77 0.9 WSW 22 30 12 16 - - 0.0
03/05:30pm -3.6 -10.3 -8.4 69 1.4 W 20 24 11 13 - - 0.0
03/05:00pm -2.8 -9.5 -9.9 58 2.0 W 19 24 10 13 - - 0.0
03/04:30pm -1.7 -7.3 -10.7 50 2.6 W 13 19 7 10 - - 0.0
03/04:00pm -0.7 -6.9 -9.3 52 2.7 W 17 24 9 13 - - 0.0
03/03:30pm -0.4 -6.2 -9.0 52 2.8 W 15 24 8 13 - - 0.0
03/03:00pm 0.0 -5.8 -8.9 51 2.9 W 15 24 8 13 - - 0.0
03/02:30pm -0.1 -5.9 -9.2 50 2.9 W 15 22 8 12 - - 0.0
03/02:00pm 0.0 -5.3 -7.7 56 2.6 W 13 22 7 12 - - 0.0
03/01:30pm 0.2 -4.8 -8.2 53 2.8 W 11 22 6 12 - - 0.0
03/01:00pm 0.2 -5.2 -8.2 53 2.8 W 13 20 7 11 - - 0.0
03/12:30pm 0.2 -5.7 -9.5 48 3.1 W 15 24 8 13 - - 0.0
03/12:00pm -0.1 -5.9 -9.0 51 2.9 W 15 26 8 14 - - 0.0
03/11:30am -0.5 -6.3 -8.9 53 2.7 W 15 24 8 13 - - 0.0
03/11:00am -0.1 -5.8 -12.0 40 3.5 WNW 13 20 7 11 - - 0.0
03/10:30am 0.1 -6.0 -12.8 37 3.8 NW 15 20 8 11 - - 0.0
03/10:00am -0.7 -6.8 -13.5 37 3.6 NW 15 20 8 11 - - 0.0
03/09:30am -0.6 -5.6 -13.1 38 3.6 NW 9 15 5 8 - - 0.0
03/09:00am -1.6 -7.0 -13.7 39 3.3 WNW 11 15 6 8 - - 0.8
03/08:30am -2.4 -8.2 -14.4 39 3.1 W 13 20 7 11 - - 0.8
03/08:00am -4.3 -9.7 -13.4 49 2.3 WSW 11 15 6 8 - - 0.8
03/07:30am -4.9 -9.9 -13.7 50 2.1 WSW 9 13 5 7 - - 0.8
03/07:00am -3.2 -8.8 -17.9 31 3.4 WNW 11 17 6 9 - - 0.8
03/06:30am -3.2 -9.1 -17.1 33 3.3 NW 13 19 7 10 - - 0.8
03/06:00am -2.1 -7.0 -19.9 24 4.1 NW 7 11 4 6 - - 0.8
03/05:30am -1.7 -6.2 -23.5 17 4.6 NNW 4 6 2 3 - - 0.8
03/05:00am -1.1 -5.1 -21.7 19 4.6 SE 2 4 1 2 - - 0.8
03/04:30am -0.7 -4.8 -22.7 17 4.9 S 2 4 1 2 - - 0.8
03/04:00am -0.3 -5.0 -20.5 20 4.8 SSE 6 7 3 4 - - 0.8
03/03:30am 0.8 -3.6 -22.1 16 5.4 SSE 4 7 2 4 - - 0.8
03/03:00am -0.7 -7.5 -18.7 24 4.4 S 17 22 9 12 - - 0.8
03/02:30am -1.7 -8.8 -16.6 31 3.8 S 19 28 10 15 - - 0.8
03/02:00am -2.1 -9.7 -15.5 35 3.4 S 22 33 12 18 - - 0.8
03/01:30am -2.7 -9.9 -14.7 39 3.1 S 20 28 11 15 - - 0.8
03/01:00am -2.6 -9.8 -14.9 38 3.2 S 20 30 11 16 - - 0.8
03/12:30am -3.6 -9.8 -14.1 44 2.7 SSE 15 22 8 12 - - 0.8
03/12:00am -3.9 -10.4 -13.0 49 2.3 S 17 26 9 14 - - 0.8
 
Date/Time
EST
Tmp

°C
App
Tmp
°C
Dew
Point
°C
Rel
Hum
%
Delta-T

°C
Wind Press
QNH
hPa
Press
MSL
hPa
Rain
since
9 am
mm
Dir
 
Spd
km/h
Gust
km/h
Spd
kts
Gust
kts
02/11:30pm -4.2 -9.9 -12.8 51 2.2 S 13 28 7 15 - - 0.8
02/11:00pm -5.2 -11.6 -11.7 60 1.6 S 17 30 9 16 - - 0.8
02/10:30pm -5.2 -12.5 -11.1 63 1.5 S 22 48 12 26 - - 0.8
02/10:00pm -5.3 -14.6 -9.9 70 1.1 SSW 33 59 18 32 - - 0.8
02/09:30pm -5.8 -15.7 -7.9 85 0.4 SSW 37 59 20 32 - - 0.8
02/09:00pm -6.4 -16.2 -7.1 95 0.0 S 37 61 20 33 - - 0.8
02/08:47pm -6.5 -15.4 -7.0 96 -0.1 S 32 54 17 29 - - 0.8
02/08:30pm -6.3 -14.4 -6.8 96 -0.1 S 28 41 15 22 - - 0.8
02/08:00pm -6.4 -13.4 -6.9 96 -0.1 S 22 35 12 19 - - 0.8
02/07:30pm -6.1 -13.4 -6.6 96 -0.1 SSW 24 44 13 24 - - 0.8
02/07:12pm -6.0 -14.1 -6.5 96 -0.1 SSW 28 46 15 25 - - 0.8
02/07:00pm -5.9 -14.3 -6.4 96 -0.1 SSW 30 43 16 23 - - 0.8
02/06:30pm -5.9 -14.9 -6.4 96 -0.1 SSW 33 54 18 29 - - 0.8
02/06:00pm -5.8 -14.6 -6.2 97 -0.1 SSW 32 50 17 27 - - 0.8
02/05:41pm -5.5 -13.5 -5.9 97 -0.1 SW 28 46 15 25 - - 0.8
02/05:30pm -5.3 -14.1 -5.7 97 -0.1 SW 32 48 17 26 - - 0.8
02/05:06pm -5.0 -13.0 -5.4 97 -0.1 SW 28 48 15 26 - - 0.8
02/05:00pm -4.9 -12.5 -5.3 97 -0.1 SW 26 44 14 24 - - 0.8
02/04:39pm -4.0 -11.9 -4.3 98 -0.1 SW 28 46 15 25 - - 0.8
02/04:30pm -3.0 -10.0 -3.3 98 0.0 SW 24 43 13 23 - - 0.6
02/04:00pm -2.7 -8.9 -3.0 98 0.0 SW 20 46 11 25 - - 0.6
02/03:30pm -2.8 -9.4 -3.1 98 0.0 SW 22 44 12 24 - - 0.2
02/03:00pm -2.8 -10.5 -3.1 98 0.0 SW 28 59 15 32 - - 0.2
02/02:39pm -2.9 -10.6 -3.2 98 0.0 WSW 28 56 15 30 - - 0.2
02/02:30pm -2.8 -9.8 -3.1 98 0.0 WSW 24 52 13 28 - - 0.2
02/02:00pm -2.5 -10.6 -2.8 98 0.0 WSW 30 65 16 35 - - 0.2
02/01:30pm -2.1 -10.1 -2.4 98 0.0 WSW 30 57 16 31 - - 0.2
02/01:00pm -1.2 -9.5 -1.5 98 0.1 WSW 32 69 17 37 - - 0.2
02/12:30pm -1.2 -9.7 -1.5 98 0.1 WSW 33 63 18 34 - - 0.2
02/12:01pm -1.1 -8.6 -1.4 98 0.1 WSW 28 54 15 29 - - 0.2
02/12:00pm -1.0 -8.1 -1.3 98 0.1 WSW 26 54 14 29 - - 0.2
02/11:30am -1.1 -8.6 -1.4 98 0.1 W 28 63 15 34 - - 0.2
02/11:15am -1.2 -8.7 -1.5 98 0.1 W 28 57 15 31 - - 0.0
02/11:00am -1.2 -7.2 -1.5 98 0.1 W 20 43 11 23 - - 0.0
02/10:30am -1.5 -7.3 -1.8 98 0.0 W 19 39 10 21 - - 0.0
02/10:00am -1.3 -8.8 -1.6 98 0.0 W 28 48 15 26 - - 0.0
02/09:41am -1.4 -8.9 -1.7 98 0.0 W 28 52 15 28 - - 0.0
02/09:30am -1.4 -8.6 -1.7 98 0.0 WSW 26 41 14 22 - - 0.0
02/09:00am -1.7 -8.1 -2.0 98 0.0 WSW 22 44 12 24 - - 0.0
02/08:30am -1.8 -8.3 -2.1 98 0.0 WSW 22 43 12 23 - - 0.0
02/08:00am -2.0 -8.1 -2.3 98 0.0 WSW 20 41 11 22 - - 0.0
02/07:30am -2.3 -7.9 -2.6 98 0.0 WSW 17 32 9 17 - - 0.0
02/07:00am -2.5 -8.5 -2.8 98 0.0 SW 19 35 10 19 - - 0.0
02/06:30am -2.7 -9.3 -3.0 98 0.0 SW 22 41 12 22 - - 0.0
02/06:01am -2.9 -10.6 -3.2 98 0.0 SW 28 48 15 26 - - 0.0
02/06:00am -2.9 -10.6 -3.2 98 0.0 SW 28 44 15 24 - - 0.0
02/05:30am -3.1 -10.5 -3.4 98 0.0 WSW 26 43 14 23 - - 0.0
02/05:07am -3.0 -10.7 -3.3 98 0.0 WSW 28 57 15 31 - - 0.0
02/05:00am -2.9 -10.2 -3.2 98 0.0 WSW 26 57 14 31 - - 0.0
02/04:30am -3.2 -9.8 -3.5 98 0.0 SW 22 37 12 20 - - 0.0
02/04:00am -3.3 -10.3 -3.6 98 0.0 SW 24 39 13 21 - - 0.0
02/03:30am -3.2 -11.7 -3.5 98 0.0 SW 32 52 17 28 - - 0.0
02/03:10am -3.1 -10.9 -3.4 98 0.0 SW 28 48 15 26 - - 0.0
02/03:00am -3.5 -11.3 -3.9 97 0.0 SW 28 43 15 23 - - 0.0
02/02:30am -3.7 -10.4 -4.1 97 0.0 SW 22 35 12 19 - - 0.0
02/02:00am -3.8 -10.9 -4.2 97 0.0 SW 24 35 13 19 - - 0.0
02/01:30am -3.9 -11.0 -4.3 97 0.0 SSW 24 37 13 20 - - 0.0
02/01:00am -3.9 -11.0 -4.3 97 0.0 SSW 24 43 13 23 - - 0.0
02/12:30am -4.5 -10.9 -4.9 97 -0.1 SSW 20 30 11 16 - - 0.0
02/12:00am -4.3 -11.8 -4.7 97 -0.1 SW 26 39 14 21 - - 0.0
 
Date/Time
EST
Tmp

°C
App
Tmp
°C
Dew
Point
°C
Rel
Hum
%
Delta-T

°C
Wind Press
QNH
hPa
Press
MSL
hPa
Rain
since
9 am
mm
Dir
 
Spd
km/h
Gust
km/h
Spd
kts
Gust
kts
01/11:30pm -4.2 -12.8 -4.6 97 0.0 SW 32 43 17 23 - - 0.0
01/11:05pm -4.3 -13.0 -4.7 97 -0.1 SSW 32 50 17 27 - - 0.0
01/11:00pm -4.3 -13.0 -4.7 97 -0.1 SSW 32 46 17 25 - - 0.0
01/10:30pm -4.4 -13.6 -4.8 97 -0.1 SSW 35 46 19 25 - - 0.0
01/10:00pm -4.3 -13.0 -4.7 97 -0.1 SSW 32 44 17 24 - - 0.0
01/09:30pm -4.6 -12.5 -5.1 96 0.0 SW 28 41 15 22 - - 0.0
01/09:00pm -3.8 -12.1 -4.5 95 0.1 SW 30 44 16 24 - - 0.0
01/08:30pm -4.3 -13.0 -4.7 97 -0.1 SW 32 43 17 23 - - 0.0
01/08:00pm -4.3 -12.2 -4.7 97 -0.1 SW 28 39 15 21 - - 0.0
01/07:30pm -3.7 -11.2 -4.1 97 0.0 WSW 26 39 14 21 - - 0.0
01/07:00pm -2.8 -10.9 -3.2 97 0.0 WSW 30 43 16 23 - - 0.0
01/06:30pm -2.6 -9.5 -3.0 97 0.0 WSW 24 35 13 19 - - 0.0
01/06:00pm -2.5 -8.5 -3.0 96 0.1 WSW 19 30 10 16 - - 0.0
01/05:30pm -2.4 -8.4 -2.9 96 0.1 WSW 19 26 10 14 - - 0.0
01/05:00pm -1.0 -6.1 -1.7 95 0.2 WSW 15 26 8 14 - - 0.0
01/04:30pm -0.1 -5.4 -0.9 94 0.3 WSW 17 26 9 14 - - 0.0
01/04:00pm 1.1 -3.7 0.1 93 0.4 W 15 22 8 12 - - 0.0
01/03:30pm 1.5 -3.0 -0.3 88 0.7 W 13 24 7 13 - - 0.0
01/03:00pm 2.2 -1.9 -0.5 82 1.1 W 11 19 6 10 - - 0.0
01/02:30pm 2.7 -1.5 -1.1 76 1.5 W 11 20 6 11 - - 0.0
01/02:00pm 2.7 -1.2 -1.6 73 1.7 W 9 17 5 9 - - 0.0
01/01:30pm 2.4 -2.0 -2.1 72 1.8 W 11 24 6 13 - - 0.0
01/01:00pm 3.1 -1.3 -2.4 67 2.2 W 11 20 6 11 - - 0.0
01/12:30pm 3.1 -1.2 -4.6 57 2.9 W 9 17 5 9 - - 0.0
01/12:00pm 3.5 0.1 -4.9 54 3.1 W 4 9 2 5 - - 0.0
01/11:30am 3.1 -0.4 -6.3 50 3.5 SW 4 9 2 5 - - 0.0
01/11:00am 4.2 0.6 -11.8 30 5.3 SSW 2 9 1 5 - - 0.0
01/10:30am 3.0 -1.2 -9.6 39 4.3 SW 6 9 3 5 - - 0.0
01/10:00am 2.6 -0.9 -10.3 38 4.3 SW 2 6 1 3 - - 0.0
01/09:30am 2.6 -1.7 -11.7 34 4.6 SSW 6 11 3 6 - - 0.0
01/09:00am 1.8 -2.7 -12.4 34 4.4 SSW 7 11 4 6 - - 0.0
01/08:30am 0.6 -4.7 -12.4 37 3.9 S 11 13 6 7 - - 0.0

Latest Capital City Observations: Canberra | Sydney | Melbourne | Brisbane | Adelaide | Perth | Hobart | Darwin

Other Formats:

Comma delimited format used in spreadsheet applications
http://www.bom.gov.au/fwo/IDN60903/IDN60903.95925.axf

JavaScript Object Notation format (JSON) in row-major order
http://www.bom.gov.au/fwo/IDN60903/IDN60903.95925.json